createdAt,value
2018-12-03T00:01:28.899Z,10.60
2018-12-03T00:04:04.921Z,10.70
2018-12-03T00:06:33.662Z,10.70
2018-12-03T00:09:02.083Z,10.70
2018-12-03T00:11:30.415Z,10.60
2018-12-03T00:13:58.775Z,10.60
2018-12-03T00:16:27.097Z,10.60
2018-12-03T00:18:55.521Z,10.60
2018-12-03T00:21:23.940Z,10.60
2018-12-03T00:23:52.308Z,10.70
2018-12-03T00:26:20.682Z,10.60
2018-12-03T00:28:49.105Z,10.60
2018-12-03T00:31:17.539Z,10.60
2018-12-03T00:33:46.045Z,10.80
2018-12-03T00:36:14.391Z,10.80
2018-12-03T00:38:42.789Z,10.80
2018-12-03T00:41:11.196Z,10.80
2018-12-03T00:43:39.587Z,10.80
2018-12-03T00:46:08.132Z,10.70
2018-12-03T00:48:36.605Z,10.80
2018-12-03T00:51:05.178Z,10.70
2018-12-03T00:53:33.583Z,10.70
2018-12-03T00:56:01.977Z,10.80
2018-12-03T00:58:30.350Z,10.70
2018-12-03T01:00:58.855Z,10.70
2018-12-03T01:03:27.237Z,10.60
2018-12-03T01:05:55.641Z,10.60
2018-12-03T01:08:24.051Z,10.80
2018-12-03T01:10:52.429Z,10.80
2018-12-03T01:13:20.794Z,10.70
2018-12-03T01:15:49.151Z,10.70
2018-12-03T01:18:17.633Z,10.70
2018-12-03T01:20:45.976Z,10.70
2018-12-03T01:23:14.479Z,10.70
2018-12-03T01:25:42.888Z,10.60
2018-12-03T01:28:11.270Z,10.70
2018-12-03T01:30:39.669Z,10.80
2018-12-03T01:33:08.012Z,10.90
2018-12-03T01:35:36.490Z,10.90
2018-12-03T01:38:05.727Z,10.80
2018-12-03T01:40:34.263Z,10.80
2018-12-03T01:43:02.661Z,10.80
2018-12-03T01:45:31.008Z,10.80
2018-12-03T01:47:59.385Z,10.90
2018-12-03T01:50:27.758Z,10.90
2018-12-03T01:52:56.187Z,10.80
2018-12-03T01:55:24.520Z,10.80
2018-12-03T01:57:52.963Z,10.70
2018-12-03T02:00:21.329Z,10.70
2018-12-03T02:02:49.744Z,10.70
2018-12-03T02:05:18.114Z,10.70
2018-12-03T02:07:46.491Z,10.80
2018-12-03T02:10:15.780Z,10.80
2018-12-03T02:12:44.222Z,10.80
2018-12-03T02:15:14.739Z,10.80
2018-12-03T02:17:43.668Z,10.80
2018-12-03T02:20:17.121Z,10.80
2018-12-03T02:22:45.537Z,10.70
2018-12-03T02:25:13.933Z,10.70
2018-12-03T02:27:42.392Z,10.70
2018-12-03T02:30:15.554Z,10.70
2018-12-03T02:32:44.141Z,10.70
2018-12-03T02:35:13.361Z,10.70
2018-12-03T02:37:41.746Z,10.80
2018-12-03T02:40:15.282Z,10.70
2018-12-03T02:42:43.824Z,10.70
2018-12-03T02:45:13.181Z,10.70
2018-12-03T02:47:41.573Z,10.70
2018-12-03T02:50:12.327Z,10.70
2018-12-03T02:52:40.862Z,10.60
2018-12-03T02:55:11.732Z,10.60
2018-12-03T02:57:40.110Z,10.50
2018-12-03T03:00:12.803Z,10.50
2018-12-03T03:02:41.979Z,10.50
2018-12-03T03:05:11.721Z,10.40
2018-12-03T03:07:40.232Z,10.30
2018-12-03T03:10:12.265Z,10.30
2018-12-03T03:12:40.771Z,10.20
2018-12-03T03:15:11.234Z,10.10
2018-12-03T03:17:40.152Z,10.10
2018-12-03T03:20:10.741Z,10.10
2018-12-03T03:22:39.233Z,10.10
2018-12-03T03:25:08.607Z,10.10
2018-12-03T03:27:37.017Z,10.20
2018-12-03T03:30:08.145Z,10.20
2018-12-03T03:32:36.613Z,10.10
2018-12-03T03:35:08.588Z,10.10
2018-12-03T03:37:37.447Z,10.20
2018-12-03T03:40:09.568Z,10.30
2018-12-03T03:42:38.301Z,10.20
2018-12-03T03:45:10.556Z,10.20
2018-12-03T03:47:39.252Z,10.20
2018-12-03T03:50:08.570Z,10.30
2018-12-03T03:52:37.335Z,10.30
2018-12-03T03:55:06.374Z,10.20
2018-12-03T03:57:34.982Z,10.30
2018-12-03T04:00:03.717Z,10.30
2018-12-03T04:02:32.430Z,10.30
2018-12-03T04:05:00.838Z,10.40
2018-12-03T04:07:29.544Z,10.40
2018-12-03T04:09:58.368Z,10.40
2018-12-03T04:12:27.017Z,10.50
2018-12-03T04:14:55.470Z,10.50
2018-12-03T04:17:24.177Z,10.40
2018-12-03T04:19:52.709Z,10.50
2018-12-03T04:22:21.444Z,10.60
2018-12-03T04:24:49.939Z,10.50
2018-12-03T04:27:18.608Z,10.50
2018-12-03T04:29:47.293Z,10.40
2018-12-03T04:32:15.976Z,10.50
2018-12-03T04:34:44.454Z,10.50
2018-12-03T04:37:13.133Z,10.60
2018-12-03T04:39:41.826Z,10.60
2018-12-03T04:42:10.365Z,10.70
2018-12-03T04:44:39.090Z,10.80
2018-12-03T04:47:07.695Z,10.80
2018-12-03T04:49:36.360Z,10.80
2018-12-03T04:52:04.994Z,10.80
2018-12-03T04:54:33.622Z,10.90
2018-12-03T04:57:02.309Z,10.90
2018-12-03T04:59:31.042Z,10.80
2018-12-03T05:01:59.780Z,10.90
2018-12-03T05:04:28.353Z,11.00
2018-12-03T05:06:56.761Z,10.90
2018-12-03T05:09:25.217Z,10.90
2018-12-03T05:11:53.560Z,11.50
2018-12-03T05:14:21.980Z,10.90
2018-12-03T05:16:50.291Z,11.00
2018-12-03T05:19:18.636Z,11.00
2018-12-03T05:21:47.093Z,10.90
2018-12-03T05:24:15.445Z,11.00
2018-12-03T05:26:43.887Z,11.00
2018-12-03T05:29:12.181Z,11.00
2018-12-03T05:31:40.566Z,10.90
2018-12-03T05:34:08.929Z,11.00
2018-12-03T05:36:37.281Z,11.00
2018-12-03T05:39:08.516Z,11.10
2018-12-03T05:41:36.901Z,11.10
2018-12-03T05:44:05.325Z,11.00
2018-12-03T05:46:34.833Z,11.00
2018-12-03T05:49:02.041Z,11.00
2018-12-03T05:51:30.434Z,11.00
2018-12-03T05:53:58.915Z,11.00
2018-12-03T05:56:27.248Z,11.00
2018-12-03T05:58:55.680Z,10.90
2018-12-03T06:01:24.127Z,10.90
2018-12-03T06:03:52.527Z,10.90
2018-12-03T06:06:20.955Z,10.90
2018-12-03T06:08:49.381Z,10.90
2018-12-03T06:11:17.758Z,10.90
2018-12-03T06:13:46.159Z,11.00
2018-12-03T06:16:14.546Z,11.00
2018-12-03T06:18:43.065Z,11.10
2018-12-03T06:21:11.374Z,11.20
2018-12-03T06:23:39.679Z,11.10
2018-12-03T06:26:08.105Z,11.00
2018-12-03T06:28:36.481Z,11.10
2018-12-03T06:31:04.795Z,11.10
2018-12-03T06:33:33.201Z,11.10
2018-12-03T06:36:01.596Z,11.10
2018-12-03T06:38:29.945Z,11.10
2018-12-03T06:40:58.332Z,11.10
2018-12-03T06:43:26.784Z,11.20
2018-12-03T06:45:55.217Z,11.20
2018-12-03T06:48:24.453Z,11.20
2018-12-03T06:50:52.944Z,11.30
2018-12-03T06:53:21.412Z,11.30
2018-12-03T06:55:50.032Z,11.20
2018-12-03T06:58:18.449Z,11.20
2018-12-03T07:00:48.599Z,11.20
2018-12-03T07:03:17.065Z,11.30
2018-12-03T07:05:47.153Z,11.30
2018-12-03T07:08:15.771Z,11.40
2018-12-03T07:10:44.176Z,11.30
2018-12-03T07:13:18.862Z,11.30
2018-12-03T07:15:49.206Z,11.30
2018-12-03T07:18:17.624Z,11.20
2018-12-03T07:20:46.080Z,11.20
2018-12-03T07:23:14.480Z,11.30
2018-12-03T07:25:42.877Z,11.30
2018-12-03T07:28:11.245Z,11.40
2018-12-03T07:30:39.682Z,11.40
2018-12-03T07:33:08.064Z,11.40
2018-12-03T07:35:36.468Z,11.50
2018-12-03T07:38:05.111Z,11.50
2018-12-03T07:40:33.485Z,11.40
2018-12-03T07:43:01.902Z,11.50
2018-12-03T07:45:30.360Z,11.50
2018-12-03T07:47:58.773Z,11.60
2018-12-03T07:50:27.125Z,11.60
2018-12-03T07:52:55.612Z,11.70
2018-12-03T07:55:24.978Z,11.80
2018-12-03T07:58:00.109Z,11.90
2018-12-03T08:00:45.031Z,12.00
2018-12-03T08:03:13.612Z,12.00
2018-12-03T08:05:42.041Z,12.10
2018-12-03T08:08:10.447Z,12.10
2018-12-03T08:10:39.487Z,12.10
2018-12-03T08:13:09.932Z,12.10
2018-12-03T08:15:38.630Z,12.00
2018-12-03T08:18:09.687Z,12.00
2018-12-03T08:20:44.105Z,12.10
2018-12-03T08:23:17.649Z,12.10
2018-12-03T08:25:46.123Z,12.10
2018-12-03T08:28:14.515Z,12.10
2018-12-03T08:30:42.907Z,12.10
2018-12-03T08:33:11.291Z,12.20
2018-12-03T08:35:39.636Z,12.10
2018-12-03T08:38:07.966Z,12.10
2018-12-03T08:40:36.367Z,12.30
2018-12-03T08:43:04.885Z,12.30
2018-12-03T08:45:33.348Z,12.40
2018-12-03T08:48:01.741Z,12.30
2018-12-03T08:50:30.223Z,12.30
2018-12-03T08:52:59.157Z,12.30
2018-12-03T08:55:27.703Z,12.40
2018-12-03T08:57:56.209Z,12.40
2018-12-03T09:00:28.996Z,12.70
2018-12-03T09:03:30.096Z,12.90
2018-12-03T09:06:02.169Z,12.80
2018-12-03T09:08:30.653Z,12.70
2018-12-03T09:10:59.023Z,12.70
2018-12-03T09:13:27.409Z,12.60
2018-12-03T09:16:01.287Z,12.70
2018-12-03T09:18:34.162Z,12.60
2018-12-03T09:21:02.879Z,12.70
2018-12-03T09:23:31.317Z,12.70
2018-12-03T09:25:59.684Z,12.80
2018-12-03T09:28:28.118Z,12.90
2018-12-03T09:30:56.521Z,13.00
2018-12-03T09:33:24.958Z,13.00
2018-12-03T09:35:53.355Z,13.10
2018-12-03T09:38:21.755Z,13.10
2018-12-03T09:40:50.133Z,13.10
2018-12-03T09:43:18.477Z,13.10
2018-12-03T09:45:46.860Z,13.40
2018-12-03T09:48:15.321Z,13.30
2018-12-03T09:50:43.631Z,13.40
2018-12-03T09:53:12.041Z,13.40
2018-12-03T09:55:40.470Z,13.90
2018-12-03T09:58:18.120Z,14.50
2018-12-03T10:00:46.570Z,15.10
2018-12-03T10:03:20.155Z,15.50
2018-12-03T10:05:53.528Z,15.80
2018-12-03T10:08:26.353Z,16.60
2018-12-03T10:10:59.295Z,17.40
2018-12-03T10:13:28.598Z,18.00
2018-12-03T10:15:57.088Z,18.50
2018-12-03T10:18:25.503Z,18.50
2018-12-03T10:20:55.540Z,17.70
2018-12-03T10:23:24.037Z,17.10
2018-12-03T10:25:55.063Z,16.60
2018-12-03T10:28:24.122Z,16.60
2018-12-03T10:30:54.186Z,16.60
2018-12-03T10:33:31.879Z,16.90
2018-12-03T10:36:01.960Z,16.60
2018-12-03T10:38:33.699Z,16.70
2018-12-03T10:41:26.293Z,16.20
2018-12-03T10:43:57.106Z,16.10
2018-12-03T10:46:25.411Z,16.00
2018-12-03T10:48:53.876Z,15.80
2018-12-03T10:54:38.166Z,15.20
2018-12-03T10:57:08.221Z,14.90
2018-12-03T10:59:36.669Z,15.20
2018-12-03T11:02:10.566Z,16.60
2018-12-03T11:04:43.191Z,16.40
2018-12-03T11:07:13.776Z,16.10
2018-12-03T11:09:42.328Z,15.60
2018-12-03T11:12:10.844Z,15.10
2018-12-03T11:14:39.206Z,15.40
2018-12-03T11:17:08.312Z,15.30
2018-12-03T11:19:36.780Z,15.10
2018-12-03T11:22:05.768Z,14.90
2018-12-03T11:24:34.131Z,15.20
2018-12-03T11:27:02.893Z,15.20
2018-12-03T11:29:31.359Z,15.00
2018-12-03T11:31:59.767Z,14.90
2018-12-03T11:34:28.123Z,14.80
2018-12-03T11:36:58.781Z,15.00
2018-12-03T11:39:51.647Z,15.50
2018-12-03T11:42:19.995Z,15.70
2018-12-03T11:44:48.449Z,15.70
2018-12-03T11:47:16.857Z,15.90
2018-12-03T11:49:45.293Z,16.20
2018-12-03T11:52:13.709Z,16.60
2018-12-03T11:54:42.104Z,16.50
2018-12-03T11:57:10.525Z,16.60
2018-12-03T11:59:38.860Z,16.30
2018-12-03T12:02:07.561Z,16.40
2018-12-03T12:04:35.954Z,16.30
2018-12-03T12:07:04.391Z,16.10
2018-12-03T12:09:32.804Z,15.90
2018-12-03T12:12:01.154Z,15.60
2018-12-03T12:14:29.799Z,15.70
2018-12-03T12:16:58.180Z,15.70
2018-12-03T12:19:26.595Z,15.50
2018-12-03T12:21:55.010Z,15.30
2018-12-03T12:24:23.407Z,15.30
2018-12-03T12:26:53.421Z,15.20
2018-12-03T12:29:21.724Z,15.20
2018-12-03T12:31:50.153Z,15.30
2018-12-03T12:34:18.530Z,15.40
2018-12-03T12:36:46.873Z,15.40
2018-12-03T12:39:15.202Z,15.20
2018-12-03T12:41:43.782Z,15.10
2018-12-03T12:44:12.625Z,15.00
2018-12-03T12:46:43.583Z,14.90
2018-12-03T12:49:11.970Z,14.70
2018-12-03T12:51:40.343Z,14.70
2018-12-03T12:54:08.807Z,14.60
2018-12-03T12:56:37.201Z,14.60
2018-12-03T12:59:05.788Z,14.50
2018-12-03T13:01:34.105Z,14.60
2018-12-03T13:04:02.513Z,14.70
2018-12-03T13:06:30.846Z,14.60
2018-12-03T13:08:59.295Z,14.60
2018-12-03T13:11:27.708Z,14.70
2018-12-03T13:13:56.075Z,14.70
2018-12-03T13:16:24.520Z,14.60
2018-12-03T13:18:52.927Z,14.60
2018-12-03T13:21:21.245Z,14.60
2018-12-03T13:23:49.551Z,14.50
2018-12-03T13:26:18.041Z,14.40
2018-12-03T13:28:46.429Z,14.40
2018-12-03T13:31:14.848Z,14.40
2018-12-03T13:33:43.235Z,14.30
2018-12-03T13:36:11.631Z,14.30
2018-12-03T13:38:40.007Z,14.30
2018-12-03T13:41:08.460Z,14.30
2018-12-03T13:43:36.919Z,14.40
2018-12-03T13:46:05.748Z,14.20
2018-12-03T13:48:34.174Z,14.20
2018-12-03T13:51:02.649Z,14.30
2018-12-03T13:53:31.090Z,14.20
2018-12-03T13:55:59.397Z,14.20
2018-12-03T13:58:27.766Z,14.20
2018-12-03T14:00:56.143Z,14.20
2018-12-03T14:03:26.432Z,14.30
2018-12-03T14:06:04.241Z,14.20
2018-12-03T14:08:45.161Z,14.10
2018-12-03T14:11:28.717Z,14.10
2018-12-03T14:14:39.738Z,14.10
2018-12-03T14:17:18.356Z,14.10
2018-12-03T14:19:51.650Z,14.00
2018-12-03T14:23:26.454Z,14.00
2018-12-03T14:25:54.855Z,14.00
2018-12-03T14:28:23.173Z,14.00
2018-12-03T14:30:51.530Z,14.10
2018-12-03T14:33:19.880Z,14.10
2018-12-03T14:35:48.294Z,14.00
2018-12-03T14:38:16.702Z,14.10
2018-12-03T14:40:45.033Z,13.90
2018-12-03T14:43:13.337Z,13.80
2018-12-03T14:45:41.741Z,13.80
2018-12-03T14:48:10.165Z,13.80
2018-12-03T14:50:38.623Z,13.80
2018-12-03T14:53:07.856Z,13.80
2018-12-03T14:55:35.421Z,13.80
2018-12-03T14:58:03.783Z,13.60
2018-12-03T15:00:32.212Z,13.60
2018-12-03T15:03:00.567Z,13.70
2018-12-03T15:05:29.061Z,13.70
2018-12-03T15:07:57.469Z,13.70
2018-12-03T15:10:25.854Z,13.70
2018-12-03T15:12:54.461Z,13.60
2018-12-03T15:15:22.859Z,13.50
2018-12-03T15:17:51.190Z,13.50
2018-12-03T15:20:19.585Z,13.40
2018-12-03T15:22:48.008Z,13.50
2018-12-03T15:25:16.315Z,13.50
2018-12-03T15:27:44.775Z,13.50
2018-12-03T15:30:13.220Z,13.50
2018-12-03T15:32:41.681Z,13.50
2018-12-03T15:35:10.858Z,13.50
2018-12-03T15:37:39.178Z,13.60
2018-12-03T15:40:13.655Z,13.50
2018-12-03T15:42:42.081Z,13.40
2018-12-03T15:45:11.993Z,13.40
2018-12-03T15:47:40.446Z,13.50
2018-12-03T15:50:08.832Z,13.50
2018-12-03T15:52:37.173Z,13.60
2018-12-03T15:55:06.945Z,13.50
2018-12-03T15:57:35.305Z,13.50
2018-12-03T16:00:05.508Z,13.50
2018-12-03T16:02:33.844Z,13.50
2018-12-03T16:05:02.243Z,13.50
2018-12-03T16:07:30.637Z,13.40
2018-12-03T16:09:59.012Z,13.40
2018-12-03T16:12:27.380Z,13.50
2018-12-03T16:14:55.774Z,13.40
2018-12-03T16:17:24.200Z,13.50
2018-12-03T16:19:52.603Z,13.50
2018-12-03T16:22:20.984Z,13.50
2018-12-03T16:24:49.367Z,13.50
